createdAt,value
2022-08-05T00:00:50.252Z,97363.84
2022-08-05T00:03:18.160Z,97364.25
2022-08-05T00:06:05.388Z,97359.75
2022-08-05T00:08:36.107Z,97364.50
2022-08-05T00:11:20.314Z,97358.88
2022-08-05T00:13:53.058Z,97353.75
2022-08-05T00:16:35.423Z,97362.84
2022-08-05T00:19:05.213Z,97355.88
2022-08-05T00:21:35.721Z,97353.09
2022-08-05T00:24:10.386Z,97355.69
2022-08-05T00:26:39.348Z,97353.84
2022-08-05T00:29:18.274Z,97345.88
2022-08-05T00:32:10.530Z,97353.84
2022-08-05T00:34:56.279Z,97340.94
2022-08-05T00:37:21.491Z,97342.47
2022-08-05T00:42:42.516Z,97345.31
2022-08-05T00:45:15.960Z,97344.31
2022-08-05T00:47:56.476Z,97338.91
2022-08-05T00:50:31.591Z,97335.53
2022-08-05T00:52:59.169Z,97334.03
2022-08-05T00:55:34.122Z,97331.09
2022-08-05T00:58:11.145Z,97332.38
2022-08-05T01:00:39.719Z,97332.28
2022-08-05T01:03:08.202Z,97329.84
2022-08-05T01:05:36.169Z,97334.81
2022-08-05T01:08:42.111Z,97329.03
2022-08-05T01:10:57.953Z,97325.38
2022-08-05T01:13:57.557Z,97328.72
2022-08-05T01:16:28.052Z,97324.34
2022-08-05T01:19:12.069Z,97324.34
2022-08-05T01:22:05.805Z,97320.09
2022-08-05T01:24:49.043Z,97331.19
2022-08-05T01:27:32.985Z,97335.03
2022-08-05T01:30:05.047Z,97321.09
2022-08-05T01:32:45.377Z,97317.13
2022-08-05T01:35:50.886Z,97318.44
2022-08-05T01:38:07.000Z,97320.38
2022-08-05T01:40:35.290Z,97320.31
2022-08-05T01:43:04.995Z,97316.97
2022-08-05T01:45:43.124Z,97318.25
2022-08-05T01:48:11.906Z,97323.81
2022-08-05T01:50:50.791Z,97315.50
2022-08-05T01:53:54.794Z,97321.91
2022-08-05T01:56:10.714Z,97320.56
2022-08-05T01:58:45.172Z,97317.34
2022-08-05T02:01:15.590Z,97321.88
2022-08-05T02:03:54.502Z,97318.97
2022-08-05T02:06:37.892Z,97329.03
2022-08-05T02:09:06.493Z,97324.22
2022-08-05T02:11:47.021Z,97319.44
2022-08-05T02:14:21.957Z,97328.78
2022-08-05T02:16:53.405Z,97326.44
2022-08-05T02:19:34.501Z,97323.91
2022-08-05T02:22:06.645Z,97329.41
2022-08-05T02:24:39.844Z,97329.97
2022-08-05T02:27:13.075Z,97324.69
2022-08-05T02:29:58.468Z,97332.31
2022-08-05T02:32:31.719Z,97332.03
2022-08-05T02:35:13.704Z,97333.22
2022-08-05T02:37:47.798Z,97337.41
2022-08-05T02:40:24.094Z,97332.84
2022-08-05T02:42:55.072Z,97335.47
2022-08-05T02:45:25.291Z,97329.44
2022-08-05T02:48:07.072Z,97319.81
2022-08-05T02:50:44.152Z,97311.13
2022-08-05T02:53:18.645Z,97312.06
2022-08-05T02:55:54.688Z,97304.31
2022-08-05T02:58:29.990Z,97311.72
2022-08-05T03:01:02.144Z,97309.69
2022-08-05T03:03:33.751Z,97317.63
2022-08-05T03:06:54.726Z,97418.66
2022-08-05T03:08:52.203Z,97390.94
2022-08-05T03:11:55.086Z,97361.09
2022-08-05T03:14:13.334Z,97377.66
2022-08-05T03:16:41.563Z,97371.53
2022-08-05T03:19:17.105Z,97379.09
2022-08-05T03:21:58.576Z,97372.75
2022-08-05T03:24:29.800Z,97372.97
2022-08-05T03:26:58.839Z,97374.38
2022-08-05T03:29:45.107Z,97364.72
2022-08-05T03:32:15.677Z,97364.00
2022-08-05T03:34:50.809Z,97365.72
2022-08-05T03:37:20.194Z,97375.84
2022-08-05T03:39:59.022Z,97371.78
2022-08-05T03:42:32.458Z,97363.78
2022-08-05T03:45:22.785Z,97364.38
2022-08-05T03:47:51.010Z,97375.59
2022-08-05T03:50:21.237Z,97374.69
2022-08-05T03:55:34.402Z,97375.13
2022-08-05T03:56:04.209Z,97379.44
2022-08-05T03:58:37.754Z,97386.78
2022-08-05T04:01:11.200Z,97380.16
2022-08-05T04:04:09.281Z,97387.13
2022-08-05T04:06:35.459Z,97391.69
2022-08-05T04:09:05.944Z,97384.06
2022-08-05T04:11:50.437Z,97387.59
2022-08-05T04:14:30.054Z,97383.19
2022-08-05T04:16:59.937Z,97391.97
2022-08-05T04:19:29.054Z,97393.81
2022-08-05T04:22:08.433Z,97393.09
2022-08-05T04:24:38.745Z,97389.38
2022-08-05T04:27:12.774Z,97383.72
2022-08-05T04:29:40.634Z,97389.09
2022-08-05T04:32:09.311Z,97386.91
2022-08-05T04:34:43.069Z,97394.00
2022-08-05T04:37:12.868Z,97388.59
2022-08-05T04:39:40.639Z,97383.84
2022-08-05T04:42:09.213Z,97382.38
2022-08-05T04:44:36.792Z,97392.34
2022-08-05T04:47:08.838Z,97389.44
2022-08-05T04:49:38.768Z,97387.91
2022-08-05T04:52:27.492Z,97400.50
2022-08-05T04:54:57.502Z,97403.25
2022-08-05T04:57:28.816Z,97413.78
2022-08-05T04:59:57.413Z,97410.50
2022-08-05T05:02:36.766Z,97421.25
2022-08-05T05:05:26.553Z,97422.94
2022-08-05T05:08:02.383Z,97432.47
2022-08-05T05:10:33.499Z,97419.78
2022-08-05T05:13:01.909Z,97430.22
2022-08-05T05:15:57.694Z,97446.38
2022-08-05T05:18:31.315Z,97465.56
2022-08-05T05:21:03.122Z,97463.91
2022-08-05T05:23:39.374Z,97474.13
2022-08-05T05:26:28.009Z,97472.03
2022-08-05T05:28:56.542Z,97460.44
2022-08-05T05:31:24.799Z,97443.97
2022-08-05T05:33:59.438Z,97457.75
2022-08-05T05:36:29.873Z,97450.16
2022-08-05T05:38:59.277Z,97447.56
2022-08-05T05:41:40.605Z,97448.16
2022-08-05T05:44:36.954Z,97456.09
2022-08-05T05:46:58.238Z,97457.66
2022-08-05T05:49:25.957Z,97466.59
2022-08-05T05:51:53.639Z,97468.59
2022-08-05T05:54:49.646Z,97478.34
2022-08-05T05:57:13.759Z,97485.63
2022-08-05T05:59:47.139Z,97498.31
2022-08-05T06:02:16.582Z,97506.09
2022-08-05T06:04:47.496Z,97523.31
2022-08-05T06:07:17.041Z,97550.84
2022-08-05T06:10:01.364Z,97598.50
2022-08-05T06:12:32.045Z,97563.06
2022-08-05T06:15:01.648Z,97588.00
2022-08-05T06:17:31.069Z,97593.66
2022-08-05T06:19:59.768Z,97582.41
2022-08-05T06:22:29.134Z,97575.38
2022-08-05T06:24:58.893Z,97570.19
2022-08-05T06:28:10.501Z,97578.31
2022-08-05T06:30:17.021Z,97602.91
2022-08-05T06:32:47.992Z,97597.91
2022-08-05T06:36:03.574Z,97607.69
2022-08-05T06:38:11.557Z,97626.56
2022-08-05T06:40:42.155Z,97616.84
2022-08-05T06:43:58.654Z,97612.97
2022-08-05T06:46:03.738Z,97615.66
2022-08-05T06:48:54.503Z,97617.22
2022-08-05T06:51:29.915Z,97624.34
2022-08-05T06:53:58.928Z,97626.75
2022-08-05T06:56:28.625Z,97650.63
2022-08-05T06:58:56.476Z,97656.31
2022-08-05T07:01:27.643Z,97663.06
2022-08-05T07:04:00.413Z,97660.25
2022-08-05T07:06:28.842Z,97661.09
2022-08-05T07:08:59.065Z,97670.00
2022-08-05T07:11:46.653Z,97658.75
2022-08-05T07:14:42.964Z,97652.91
2022-08-05T07:18:00.457Z,97655.44
2022-08-05T07:20:33.879Z,97665.47
2022-08-05T07:23:26.358Z,97665.16
2022-08-05T07:25:59.041Z,97667.00
2022-08-05T07:28:28.296Z,97660.59
2022-08-05T07:30:55.975Z,97664.41
2022-08-05T07:33:37.209Z,97668.84
2022-08-05T07:36:20.095Z,97664.31
2022-08-05T07:38:49.172Z,97669.94
2022-08-05T07:42:13.174Z,97681.38
2022-08-05T07:44:19.656Z,97674.56
2022-08-05T07:46:49.767Z,97676.34
2022-08-05T07:49:19.181Z,97670.25
2022-08-05T07:51:53.186Z,97675.44
2022-08-05T07:54:30.671Z,97672.66
2022-08-05T07:57:41.529Z,97674.91
2022-08-05T08:00:11.482Z,97678.06
2022-08-05T08:05:49.724Z,97662.59
2022-08-05T08:08:31.917Z,97668.94
2022-08-05T08:11:08.871Z,97670.09
2022-08-05T08:16:51.049Z,97678.59
2022-08-05T08:20:21.924Z,97676.81
2022-08-05T08:22:39.069Z,97682.44
2022-08-05T08:25:16.178Z,97684.59
2022-08-05T08:27:53.341Z,97682.44
2022-08-05T08:31:17.503Z,97680.59
2022-08-05T08:34:05.992Z,97682.31
2022-08-05T08:36:48.876Z,97679.38
2022-08-05T08:39:18.585Z,97691.31
2022-08-05T08:41:50.872Z,97688.84
2022-08-05T08:45:19.857Z,97681.78
2022-08-05T08:48:07.507Z,97685.34
2022-08-05T08:51:04.068Z,97688.34
2022-08-05T08:53:44.291Z,97684.06
2022-08-05T08:56:13.695Z,97692.41
2022-08-05T09:03:11.474Z,97694.56
2022-08-05T09:06:07.613Z,97693.34
2022-08-05T09:09:15.692Z,97680.56
2022-08-05T09:12:19.993Z,97689.66
2022-08-05T09:14:58.822Z,97691.25
2022-08-05T09:17:43.073Z,97696.59
2022-08-05T09:20:36.424Z,97695.16
2022-08-05T09:23:18.451Z,97689.50
2022-08-05T09:26:01.829Z,97685.38
2022-08-05T09:28:34.065Z,97677.66
2022-08-05T09:31:18.277Z,97679.50
2022-08-05T09:33:56.245Z,97676.44
2022-08-05T09:36:27.392Z,97670.72
2022-08-05T09:39:03.003Z,97671.72
2022-08-05T09:41:33.224Z,97673.63
2022-08-05T09:44:06.411Z,97671.25
2022-08-05T09:46:35.711Z,97665.69
2022-08-05T09:49:19.591Z,97667.84
2022-08-05T09:51:49.677Z,97678.97
2022-08-05T09:54:21.375Z,97660.91
2022-08-05T09:57:01.329Z,97658.56
2022-08-05T09:59:35.184Z,97647.13
2022-08-05T10:02:05.418Z,97646.63
2022-08-05T10:04:39.760Z,97649.47
2022-08-05T10:07:20.389Z,97649.59
2022-08-05T10:10:13.972Z,97649.25
2022-08-05T10:12:49.401Z,97648.44
2022-08-05T10:15:21.574Z,97652.53
2022-08-05T10:18:08.835Z,97649.41
2022-08-05T10:20:40.014Z,97642.44
2022-08-05T10:23:34.413Z,97638.00
2022-08-05T10:26:02.163Z,97638.53
2022-08-05T10:28:30.791Z,97652.19
2022-08-05T10:32:54.348Z,97640.97
2022-08-05T10:33:52.358Z,97633.19
2022-08-05T10:36:23.616Z,97648.81
2022-08-05T10:39:05.296Z,97646.72
2022-08-05T10:41:47.356Z,97628.25
2022-08-05T10:44:19.911Z,97639.31
2022-08-05T10:46:50.940Z,97631.41
2022-08-05T10:49:26.802Z,97630.56
2022-08-05T10:52:00.219Z,97626.84
2022-08-05T10:54:56.837Z,97622.88
2022-08-05T10:57:30.929Z,97617.19
2022-08-05T11:00:19.821Z,97611.13
2022-08-05T11:03:24.646Z,97610.22
2022-08-05T11:06:21.532Z,97608.41
2022-08-05T11:09:39.292Z,97617.22
2022-08-05T11:12:54.261Z,97621.22
2022-08-05T11:16:00.174Z,97623.09
2022-08-05T11:18:34.173Z,97618.56
2022-08-05T11:21:03.080Z,97606.47
2022-08-05T11:24:03.876Z,97616.06
2022-08-05T11:26:33.366Z,97627.25
2022-08-05T11:29:13.435Z,97622.56
2022-08-05T11:31:56.609Z,97622.56
2022-08-05T11:34:38.115Z,97620.56
2022-08-05T11:38:26.378Z,97614.06
2022-08-05T11:39:55.341Z,97609.00
2022-08-05T11:42:30.555Z,97609.16
2022-08-05T11:45:05.448Z,97612.09
2022-08-05T11:47:49.384Z,97609.84
2022-08-05T11:50:18.043Z,97614.88
2022-08-05T11:52:48.849Z,97618.16
2022-08-05T11:55:18.492Z,97619.00
2022-08-05T11:58:09.717Z,97615.41
2022-08-05T12:00:39.003Z,97626.06
2022-08-05T12:03:28.467Z,97625.28
2022-08-05T12:06:01.548Z,97622.00
2022-08-05T12:08:32.693Z,97621.59
2022-08-05T12:11:06.142Z,97619.09
2022-08-05T12:13:48.478Z,97622.53
2022-08-05T12:16:20.381Z,97617.41
2022-08-05T12:18:56.546Z,97616.03
2022-08-05T12:21:39.137Z,97607.78
2022-08-05T12:24:09.371Z,97608.66
2022-08-05T12:26:43.887Z,97604.28
2022-08-05T12:29:15.890Z,97607.66
2022-08-05T12:31:53.158Z,97610.56
2022-08-05T12:34:26.676Z,97600.00
2022-08-05T12:36:56.143Z,97618.31
2022-08-05T12:39:34.376Z,97602.00
2022-08-05T12:42:38.471Z,97607.72
2022-08-05T12:45:09.479Z,97596.81
2022-08-05T12:47:43.505Z,97599.38
2022-08-05T12:50:30.845Z,97594.34
2022-08-05T12:52:59.741Z,97597.19
2022-08-05T12:55:32.902Z,97596.22
2022-08-05T12:58:39.847Z,97593.97
2022-08-05T13:02:02.134Z,97589.09
2022-08-05T13:03:42.992Z,97590.13
2022-08-05T13:06:16.563Z,97594.47
2022-08-05T13:08:49.104Z,97587.22
2022-08-05T13:11:25.299Z,97585.66
2022-08-05T13:14:24.964Z,97582.09
2022-08-05T13:17:04.774Z,97583.78
2022-08-05T13:19:52.317Z,97587.13
2022-08-05T13:22:27.809Z,97579.00
2022-08-05T13:25:00.792Z,97586.97
2022-08-05T13:27:38.453Z,97576.81
2022-08-05T13:30:33.584Z,97566.09
2022-08-05T13:33:00.902Z,97553.66
2022-08-05T13:35:42.957Z,97555.72
2022-08-05T13:38:30.311Z,97546.94
2022-08-05T13:40:59.249Z,97549.56
2022-08-05T13:43:44.916Z,97548.88
2022-08-05T13:46:16.550Z,97553.88
2022-08-05T13:49:03.970Z,97543.59
2022-08-05T13:51:40.044Z,97540.34
2022-08-05T13:54:11.736Z,97535.75
2022-08-05T13:56:45.262Z,97535.44
2022-08-05T13:59:24.885Z,97536.28
2022-08-05T14:01:59.005Z,97539.03
2022-08-05T14:04:49.695Z,97536.59
2022-08-05T14:07:56.392Z,97527.63
2022-08-05T14:10:11.278Z,97540.88
2022-08-05T14:12:39.266Z,97546.22
2022-08-05T14:16:05.475Z,97538.31
2022-08-05T14:17:59.552Z,97536.31
2022-08-05T14:20:29.412Z,97536.47
2022-08-05T14:22:57.320Z,97535.75
2022-08-05T14:25:28.132Z,97540.00
2022-08-05T14:27:56.081Z,97525.09
2022-08-05T14:30:26.708Z,97529.34
2022-08-05T14:32:56.873Z,97525.69
2022-08-05T14:35:37.201Z,97532.38
2022-08-05T14:38:32.242Z,97526.75
2022-08-05T14:41:06.017Z,97527.84
2022-08-05T14:43:58.912Z,97525.25
2022-08-05T14:46:29.038Z,97537.06
2022-08-05T14:48:59.589Z,97533.97
2022-08-05T14:51:34.796Z,97533.03
2022-08-05T14:54:28.599Z,97530.28
2022-08-05T14:56:53.727Z,97532.75
2022-08-05T14:59:22.500Z,97541.03
2022-08-05T15:01:50.757Z,97536.19
2022-08-05T15:04:20.564Z,97541.44
2022-08-05T15:06:51.231Z,97537.06
2022-08-05T15:09:51.816Z,97546.34
2022-08-05T15:12:16.897Z,97556.03
2022-08-05T15:14:49.854Z,97558.03
2022-08-05T15:17:46.749Z,97555.81
2022-08-05T15:20:15.518Z,97558.97
2022-08-05T15:22:45.314Z,97562.38
2022-08-05T15:25:14.059Z,97567.22
2022-08-05T15:27:51.825Z,97571.63
2022-08-05T15:30:20.383Z,97575.88
2022-08-05T15:32:50.086Z,97564.00
2022-08-05T15:35:17.705Z,97561.22
2022-08-05T15:38:31.719Z,97566.09
2022-08-05T15:41:00.728Z,97570.13
2022-08-05T15:43:26.229Z,97567.88
2022-08-05T15:46:00.356Z,97576.38
2022-08-05T15:48:29.621Z,97585.00
2022-08-05T15:50:57.400Z,97584.03
2022-08-05T15:53:26.343Z,97577.31
2022-08-05T15:56:02.134Z,97572.09
2022-08-05T15:58:35.777Z,97577.97
2022-08-05T16:01:16.060Z,97574.06
2022-08-05T16:03:48.282Z,97567.09
2022-08-05T16:06:19.695Z,97585.63
2022-08-05T16:08:50.274Z,97581.41
2022-08-05T16:11:20.804Z,97586.31
2022-08-05T16:14:09.162Z,97590.69
2022-08-05T16:16:36.978Z,97589.88
2022-08-05T16:19:04.969Z,97592.78
2022-08-05T16:22:00.135Z,97596.06
2022-08-05T16:24:40.744Z,97595.56
2022-08-05T16:27:08.681Z,97600.06
2022-08-05T16:29:37.953Z,97609.13
2022-08-05T16:32:06.470Z,97607.53
2022-08-05T16:34:39.289Z,97618.19
2022-08-05T16:38:03.293Z,97623.22
2022-08-05T16:40:07.104Z,97629.50
2022-08-05T16:42:41.332Z,97620.97
2022-08-05T16:46:04.011Z,97625.16
2022-08-05T16:48:02.653Z,97626.88
2022-08-05T16:50:30.658Z,97634.97
2022-08-05T16:53:01.685Z,97637.19
2022-08-05T16:55:46.719Z,97635.03
2022-08-05T16:58:14.904Z,97629.84
2022-08-05T17:00:49.510Z,97629.38
2022-08-05T17:03:20.097Z,97629.84
2022-08-05T17:05:53.610Z,97633.31
2022-08-05T17:08:33.584Z,97634.50
2022-08-05T17:11:04.599Z,97632.13
2022-08-05T17:13:41.386Z,97642.94
2022-08-05T17:18:58.738Z,97644.19
2022-08-05T17:21:35.507Z,97637.53
2022-08-05T17:24:07.307Z,97635.44
2022-08-05T17:26:48.193Z,97632.69
2022-08-05T17:29:15.983Z,97634.69
2022-08-05T17:31:59.073Z,97640.09
2022-08-05T17:34:30.274Z,97643.69
2022-08-05T17:37:00.339Z,97641.72
2022-08-05T17:39:33.983Z,97646.94
2022-08-05T17:42:28.612Z,97650.97
2022-08-05T17:44:51.602Z,97659.94
2022-08-05T17:47:22.594Z,97665.50
2022-08-05T17:50:03.798Z,97667.38
2022-08-05T17:52:53.254Z,97673.22
2022-08-05T17:55:22.755Z,97680.75
2022-08-05T17:57:55.271Z,97700.91
2022-08-05T18:00:29.471Z,97692.72
2022-08-05T18:02:58.581Z,97704.78
2022-08-05T18:05:27.886Z,97704.09
2022-08-05T18:07:56.740Z,97713.66
2022-08-05T18:10:24.776Z,97720.72
2022-08-05T18:12:53.416Z,97718.44
2022-08-05T18:15:21.203Z,97721.22
2022-08-05T18:17:59.024Z,97726.59
2022-08-05T18:20:32.676Z,97729.81
2022-08-05T18:23:09.036Z,97737.47
2022-08-05T18:25:45.197Z,97736.03
2022-08-05T18:28:16.053Z,97739.06
2022-08-05T18:30:44.551Z,97744.94
2022-08-05T18:33:13.545Z,97746.13
2022-08-05T18:36:00.911Z,97740.25
2022-08-05T18:38:31.682Z,97743.41
2022-08-05T18:41:56.635Z,97743.34
2022-08-05T18:43:49.067Z,97745.16
2022-08-05T18:46:19.705Z,97743.72
2022-08-05T18:48:52.017Z,97742.81
2022-08-05T18:52:05.934Z,97745.50
2022-08-05T18:54:28.335Z,97753.06
2022-08-05T18:56:59.913Z,97758.72
2022-08-05T18:59:43.268Z,97762.22
2022-08-05T19:02:27.731Z,97773.84
2022-08-05T19:05:02.885Z,97779.41
2022-08-05T19:07:48.081Z,97783.72
2022-08-05T19:10:16.117Z,97791.00
2022-08-05T19:12:46.087Z,97796.41
2022-08-05T19:15:57.602Z,97790.56
2022-08-05T19:18:10.455Z,97789.63
2022-08-05T19:20:46.514Z,97798.03
2022-08-05T19:24:03.861Z,97801.09
2022-08-05T19:26:04.225Z,97807.50
2022-08-05T19:28:34.786Z,97821.84
2022-08-05T19:31:04.957Z,97821.94
2022-08-05T19:33:36.298Z,97839.41
2022-08-05T19:36:06.198Z,97833.00
2022-08-05T19:38:36.282Z,97836.06
2022-08-05T19:41:07.150Z,97848.00
2022-08-05T19:44:06.101Z,97855.16
2022-08-05T19:46:29.568Z,97851.91
2022-08-05T19:49:01.256Z,97850.34
2022-08-05T19:52:04.459Z,97861.53
2022-08-05T19:54:27.166Z,97863.75
2022-08-05T19:56:59.490Z,97872.59
2022-08-05T20:00:00.784Z,97875.00
2022-08-05T20:02:17.600Z,97878.38
2022-08-05T20:04:45.870Z,97878.97
2022-08-05T20:07:14.226Z,97908.28
2022-08-05T20:09:55.120Z,97904.88
2022-08-05T20:12:25.123Z,97886.06
2022-08-05T20:14:53.317Z,97893.22
2022-08-05T20:17:23.682Z,97898.75
2022-08-05T20:19:56.717Z,97911.31
2022-08-05T20:22:27.168Z,97909.13
2022-08-05T20:24:56.807Z,97901.59
2022-08-05T20:27:27.323Z,97901.97
2022-08-05T20:30:11.408Z,97916.47
2022-08-05T20:32:45.154Z,97909.38
2022-08-05T20:35:13.287Z,97918.69
2022-08-05T20:38:08.088Z,97938.13
2022-08-05T20:40:32.788Z,97935.13
2022-08-05T20:43:00.479Z,97926.91
2022-08-05T20:45:47.663Z,97929.94
2022-08-05T20:48:16.368Z,97922.28
2022-08-05T20:50:45.205Z,97951.00
2022-08-05T20:53:16.154Z,97968.06
2022-08-05T20:56:08.611Z,97995.91
2022-08-05T20:58:37.171Z,97994.28
2022-08-05T21:01:05.445Z,97991.69
2022-08-05T21:03:34.607Z,97992.88
2022-08-05T21:06:02.877Z,98001.94
2022-08-05T21:08:41.845Z,98011.56
2022-08-05T21:12:00.714Z,97991.72
2022-08-05T21:14:01.518Z,97953.19
2022-08-05T21:16:30.852Z,97963.53
2022-08-05T21:19:00.274Z,97968.59
2022-08-05T21:21:43.881Z,97989.88
2022-08-05T21:24:13.349Z,98004.28
2022-08-05T21:26:53.163Z,98009.56
2022-08-05T21:29:26.493Z,98021.09
2022-08-05T21:31:54.423Z,98028.88
2022-08-05T21:34:23.551Z,98032.16
2022-08-05T21:36:52.038Z,98037.69
2022-08-05T21:39:26.542Z,98037.78
2022-08-05T21:42:01.298Z,98042.91
2022-08-05T21:44:30.267Z,98035.03
2022-08-05T21:46:58.926Z,98044.75
2022-08-05T21:50:00.253Z,98062.16
2022-08-05T21:52:22.524Z,98052.91
2022-08-05T21:54:55.818Z,98053.03
2022-08-05T21:57:32.885Z,98026.97
2022-08-05T22:00:05.823Z,98026.13
2022-08-05T22:02:34.700Z,98056.09
2022-08-05T22:05:02.328Z,98064.97
2022-08-05T22:07:40.521Z,98064.25
2022-08-05T22:10:26.750Z,98054.47
2022-08-05T22:12:57.496Z,98015.91
2022-08-05T22:16:00.529Z,97988.78
2022-08-05T22:18:14.706Z,98016.25
2022-08-05T22:20:42.869Z,98029.41
2022-08-05T22:24:02.728Z,98057.03
2022-08-05T22:26:34.764Z,98066.00
2022-08-05T22:29:04.642Z,98073.75
2022-08-05T22:31:44.698Z,98093.22
2022-08-05T22:34:25.444Z,98080.16
2022-08-05T22:36:56.431Z,98072.38
2022-08-05T22:39:30.980Z,98082.78
2022-08-05T22:42:09.344Z,98091.16
2022-08-05T22:44:42.546Z,98098.63
2022-08-05T22:47:29.347Z,98117.59
2022-08-05T22:50:21.694Z,98130.03
2022-08-05T22:52:48.122Z,98142.56
2022-08-05T22:55:19.257Z,98154.63
2022-08-05T22:57:48.997Z,98174.91
2022-08-05T23:00:20.742Z,98178.22
2022-08-05T23:02:49.338Z,98183.13
2022-08-05T23:05:17.375Z,98177.59
2022-08-05T23:07:48.871Z,98172.97
2022-08-05T23:10:19.873Z,98165.28
2022-08-05T23:12:51.283Z,98178.38
2022-08-05T23:15:21.402Z,98181.91
2022-08-05T23:18:00.923Z,98194.25
2022-08-05T23:20:30.727Z,98185.16
2022-08-05T23:22:58.922Z,98191.69
2022-08-05T23:25:52.477Z,98190.50
2022-08-05T23:28:15.965Z,98210.38
2022-08-05T23:30:53.446Z,98211.88
2022-08-05T23:34:02.909Z,98211.00
2022-08-05T23:36:13.773Z,98219.16
2022-08-05T23:38:42.698Z,98220.13
2022-08-05T23:41:11.020Z,98223.47
2022-08-05T23:44:05.229Z,98239.44
2022-08-05T23:46:28.326Z,98237.91
2022-08-05T23:49:00.512Z,98237.63
2022-08-05T23:51:54.367Z,98223.63
2022-08-05T23:54:25.657Z,98226.91
2022-08-05T23:56:55.152Z,98232.16
2022-08-05T23:59:37.359Z,98230.91
